createdAt,value
2019-04-05T00:00:45.835Z,12.10
2019-04-05T00:03:15.678Z,12.10
2019-04-05T00:05:45.450Z,12.10
2019-04-05T00:08:15.005Z,12.10
2019-04-05T00:10:44.424Z,12.10
2019-04-05T00:13:14.115Z,12.10
2019-04-05T00:15:43.567Z,12.10
2019-04-05T00:18:13.037Z,12.10
2019-04-05T00:23:28.432Z,12.00
2019-04-05T00:25:58.467Z,12.00
2019-04-05T00:28:28.250Z,12.00
2019-04-05T00:30:59.597Z,12.00
2019-04-05T00:33:29.431Z,12.00
2019-04-05T00:35:59.693Z,12.00
2019-04-05T00:38:29.911Z,12.00
2019-04-05T00:40:59.360Z,11.90
2019-04-05T00:43:29.299Z,12.00
2019-04-05T00:46:03.950Z,11.90
2019-04-05T00:48:38.532Z,11.90
2019-04-05T00:51:09.086Z,11.90
2019-04-05T00:53:46.467Z,11.90
2019-04-05T00:56:15.882Z,11.90
2019-04-05T00:58:46.182Z,11.90
2019-04-05T01:01:17.756Z,11.80
2019-04-05T01:03:47.492Z,11.80
2019-04-05T01:06:17.355Z,11.80
2019-04-05T01:08:47.683Z,11.80
2019-04-05T01:11:17.390Z,11.80
2019-04-05T01:13:48.553Z,11.80
2019-04-05T01:16:26.027Z,11.80
2019-04-05T01:18:56.936Z,11.80
2019-04-05T01:21:29.514Z,11.80
2019-04-05T01:24:03.218Z,11.70
2019-04-05T01:26:37.300Z,11.70
2019-04-05T01:29:09.166Z,11.70
2019-04-05T01:31:39.610Z,11.70
2019-04-05T01:34:09.343Z,11.70
2019-04-05T01:36:39.029Z,11.70
2019-04-05T01:39:09.285Z,11.60
2019-04-05T01:41:39.983Z,11.60
2019-04-05T01:44:15.163Z,11.60
2019-04-05T01:47:08.005Z,11.60
2019-04-05T01:49:38.117Z,11.60
2019-04-05T01:52:08.285Z,11.60
2019-04-05T01:54:38.081Z,11.50
2019-04-05T01:57:12.448Z,11.50
2019-04-05T01:59:42.617Z,11.50
2019-04-05T02:02:14.030Z,11.40
2019-04-05T02:04:43.557Z,11.40
2019-04-05T02:07:13.317Z,11.40
2019-04-05T02:09:43.032Z,11.40
2019-04-05T02:12:12.886Z,11.40
2019-04-05T02:14:42.544Z,11.40
2019-04-05T02:17:12.002Z,11.40
2019-04-05T02:19:43.853Z,11.40
2019-04-05T02:22:14.642Z,11.40
2019-04-05T02:24:47.726Z,11.40
2019-04-05T02:27:18.966Z,11.30
2019-04-05T02:29:48.399Z,11.40
2019-04-05T02:32:58.453Z,11.30
2019-04-05T02:35:28.236Z,11.30
2019-04-05T02:37:57.891Z,11.30
2019-04-05T02:40:35.174Z,11.30
2019-04-05T02:43:07.775Z,11.30
2019-04-05T02:45:40.102Z,11.30
2019-04-05T02:48:14.466Z,11.30
2019-04-05T02:50:48.431Z,11.20
2019-04-05T02:53:23.157Z,11.20
2019-04-05T02:55:53.722Z,11.20
2019-04-05T02:58:24.076Z,11.20
2019-04-05T03:00:54.815Z,11.20
2019-04-05T03:03:24.646Z,11.20
2019-04-05T03:05:55.450Z,11.10
2019-04-05T03:08:28.912Z,11.10
2019-04-05T03:11:19.784Z,11.10
2019-04-05T03:13:53.341Z,11.10
2019-04-05T03:16:40.280Z,11.10
2019-04-05T03:19:04.580Z,11.00
2019-04-05T03:21:38.482Z,11.00
2019-04-05T03:24:32.137Z,11.00
2019-04-05T03:27:18.562Z,11.00
2019-04-05T03:29:49.827Z,11.00
2019-04-05T03:32:21.246Z,11.00
2019-04-05T03:34:52.447Z,10.90
2019-04-05T03:37:22.848Z,10.90
2019-04-05T03:39:52.666Z,10.90
2019-04-05T03:42:22.424Z,10.90
2019-04-05T03:44:52.214Z,10.90
2019-04-05T03:47:24.249Z,10.90
2019-04-05T03:49:54.814Z,10.90
2019-04-05T03:52:24.682Z,10.80
2019-04-05T03:54:54.822Z,10.80
2019-04-05T03:57:24.937Z,10.80
2019-04-05T03:59:55.345Z,10.80
2019-04-05T04:02:27.794Z,10.70
2019-04-05T04:04:58.480Z,10.70
2019-04-05T04:07:31.125Z,10.70
2019-04-05T04:10:02.218Z,10.60
2019-04-05T04:12:31.661Z,10.60
2019-04-05T04:15:14.122Z,10.60
2019-04-05T04:17:45.262Z,10.50
2019-04-05T04:20:46.662Z,10.50
2019-04-05T04:23:16.799Z,10.40
2019-04-05T04:25:47.737Z,10.30
2019-04-05T04:28:22.134Z,10.30
2019-04-05T04:30:52.151Z,10.30
2019-04-05T04:33:22.800Z,10.20
2019-04-05T04:35:53.546Z,10.20
2019-04-05T04:38:24.056Z,10.10
2019-04-05T04:40:55.099Z,10.10
2019-04-05T04:43:43.176Z,10.10
2019-04-05T04:46:13.577Z,10.00
2019-04-05T04:48:46.187Z,10.00
2019-04-05T04:51:16.659Z,10.10
2019-04-05T04:53:55.122Z,10.10
2019-04-05T04:56:25.320Z,10.10
2019-04-05T04:58:55.356Z,10.10
2019-04-05T05:01:25.650Z,10.20
2019-04-05T05:03:57.487Z,10.20
2019-04-05T05:06:30.976Z,10.20
2019-04-05T05:09:00.796Z,10.20
2019-04-05T05:11:31.152Z,10.20
2019-04-05T05:14:01.999Z,10.30
2019-04-05T05:16:32.999Z,10.30
2019-04-05T05:19:03.138Z,10.30
2019-04-05T05:21:36.154Z,10.40
2019-04-05T05:26:44.833Z,10.40
2019-04-05T05:29:15.063Z,10.40
2019-04-05T05:31:44.479Z,10.50
2019-04-05T05:34:14.144Z,10.50
2019-04-05T05:36:43.905Z,10.60
2019-04-05T05:39:13.491Z,10.70
2019-04-05T05:41:43.026Z,10.80
2019-04-05T05:44:12.458Z,11.00
2019-04-05T05:46:41.856Z,11.20
2019-04-05T05:49:11.362Z,11.30
2019-04-05T05:51:41.610Z,11.50
2019-04-05T05:54:11.189Z,11.80
2019-04-05T05:56:40.715Z,12.00
2019-04-05T05:59:10.104Z,12.20
2019-04-05T06:01:39.894Z,12.40
2019-04-05T06:04:09.260Z,12.80
2019-04-05T06:06:38.602Z,13.10
2019-04-05T06:09:09.554Z,13.50
2019-04-05T06:11:39.090Z,13.70
2019-04-05T06:14:08.458Z,14.00
2019-04-05T06:16:46.333Z,14.20
2019-04-05T06:19:09.185Z,14.50
2019-04-05T06:21:38.721Z,14.70
2019-04-05T06:24:08.202Z,14.90
2019-04-05T06:26:37.767Z,15.10
2019-04-05T06:29:07.281Z,15.40
2019-04-05T06:31:36.643Z,15.60
2019-04-05T06:34:06.120Z,15.90
2019-04-05T06:36:37.589Z,16.20
2019-04-05T06:39:08.205Z,16.30
2019-04-05T06:41:37.627Z,16.60
2019-04-05T06:44:08.272Z,16.80
2019-04-05T06:46:37.707Z,17.10
2019-04-05T06:49:07.125Z,17.40
2019-04-05T06:51:36.616Z,17.60
2019-04-05T06:54:06.205Z,17.90
2019-04-05T06:56:35.774Z,18.10
2019-04-05T06:59:05.459Z,18.50
2019-04-05T07:01:35.010Z,18.80
2019-04-05T07:04:04.641Z,19.00
2019-04-05T07:06:34.200Z,19.20
2019-04-05T07:09:06.138Z,19.20
2019-04-05T07:11:35.590Z,19.50
2019-04-05T07:14:05.062Z,19.70
2019-04-05T07:16:34.397Z,20.00
2019-04-05T07:19:04.941Z,20.10
2019-04-05T07:21:34.545Z,20.30
2019-04-05T07:24:03.882Z,20.50
2019-04-05T07:26:33.279Z,20.60
2019-04-05T07:29:04.601Z,20.80
2019-04-05T07:31:33.782Z,21.00
2019-04-05T07:34:03.372Z,21.20
2019-04-05T07:36:32.794Z,21.30
2019-04-05T07:39:02.219Z,21.40
2019-04-05T07:41:31.974Z,21.60
2019-04-05T07:44:01.582Z,21.70
2019-04-05T07:46:30.942Z,21.70
2019-04-05T07:49:00.497Z,21.90
2019-04-05T07:51:29.892Z,22.10
2019-04-05T07:53:59.401Z,22.20
2019-04-05T07:56:29.806Z,22.40
2019-04-05T07:58:59.187Z,22.50
2019-04-05T08:01:28.739Z,22.70
2019-04-05T08:03:58.329Z,22.80
2019-04-05T08:06:30.379Z,22.80
2019-04-05T08:09:13.747Z,23.00
2019-04-05T08:11:45.656Z,22.90
2019-04-05T08:14:18.145Z,23.10
2019-04-05T08:16:48.232Z,23.30
2019-04-05T08:19:17.603Z,23.40
2019-04-05T08:21:46.987Z,23.50
2019-04-05T08:24:16.372Z,23.60
2019-04-05T08:26:45.913Z,23.70
2019-04-05T08:29:15.324Z,23.80
2019-04-05T08:31:44.693Z,24.00
2019-04-05T08:34:15.413Z,24.10
2019-04-05T08:36:45.208Z,24.10
2019-04-05T08:39:14.972Z,24.30
2019-04-05T08:41:45.911Z,24.60
2019-04-05T08:44:15.320Z,24.50
2019-04-05T08:46:44.716Z,24.30
2019-04-05T08:49:14.233Z,24.50
2019-04-05T08:51:43.806Z,24.60
2019-04-05T08:54:13.280Z,24.50
2019-04-05T08:56:42.733Z,24.70
2019-04-05T08:59:12.296Z,24.70
2019-04-05T09:01:41.910Z,24.70
2019-04-05T09:04:11.464Z,24.40
2019-04-05T09:06:41.143Z,24.30
2019-04-05T09:09:10.742Z,24.30
2019-04-05T09:11:40.174Z,24.50
2019-04-05T09:14:10.086Z,24.60
2019-04-05T09:16:39.554Z,24.70
2019-04-05T09:19:09.003Z,24.40
2019-04-05T09:21:40.530Z,24.70
2019-04-05T09:24:09.437Z,24.80
2019-04-05T09:26:38.829Z,24.80
2019-04-05T09:29:10.357Z,25.10
2019-04-05T09:31:39.697Z,25.20
2019-04-05T09:34:09.120Z,25.30
2019-04-05T09:36:38.710Z,25.20
2019-04-05T09:39:15.245Z,25.30
2019-04-05T09:41:42.485Z,25.10
2019-04-05T09:44:12.016Z,25.20
2019-04-05T09:46:48.116Z,25.00
2019-04-05T09:49:15.814Z,24.90
2019-04-05T09:51:47.388Z,24.80
2019-04-05T09:54:17.013Z,24.70
2019-04-05T09:56:46.408Z,24.80
2019-04-05T09:59:15.983Z,24.90
2019-04-05T10:01:45.393Z,25.10
2019-04-05T10:04:17.250Z,25.10
2019-04-05T10:06:48.494Z,25.10
2019-04-05T10:09:17.820Z,25.30
2019-04-05T10:11:47.467Z,25.40
2019-04-05T10:14:16.800Z,25.40
2019-04-05T10:16:46.144Z,25.60
2019-04-05T10:19:15.553Z,25.60
2019-04-05T10:21:46.428Z,25.70
2019-04-05T10:24:15.833Z,25.90
2019-04-05T10:26:45.131Z,25.80
2019-04-05T10:29:16.025Z,26.00
2019-04-05T10:31:45.556Z,26.00
2019-04-05T10:34:14.962Z,26.10
2019-04-05T10:36:47.286Z,26.10
2019-04-05T10:39:16.719Z,25.80
2019-04-05T10:41:46.236Z,25.70
2019-04-05T10:44:16.836Z,25.40
2019-04-05T10:46:46.382Z,25.50
2019-04-05T10:49:15.799Z,25.50
2019-04-05T10:51:45.187Z,25.20
2019-04-05T10:54:14.607Z,25.20
2019-04-05T10:56:43.921Z,25.60
2019-04-05T10:59:13.472Z,25.80
2019-04-05T11:01:42.895Z,25.70
2019-04-05T11:04:12.585Z,25.70
2019-04-05T11:06:42.113Z,26.00
2019-04-05T11:09:11.938Z,25.90
2019-04-05T11:11:41.904Z,26.10
2019-04-05T11:14:13.873Z,26.20
2019-04-05T11:16:42.561Z,26.50
2019-04-05T11:19:15.043Z,26.30
2019-04-05T11:21:47.922Z,26.10
2019-04-05T11:24:15.738Z,26.30
2019-04-05T11:26:45.337Z,26.10
2019-04-05T11:29:16.631Z,26.30
2019-04-05T11:31:56.338Z,25.90
2019-04-05T11:34:17.777Z,25.80
2019-04-05T11:36:47.543Z,25.60
2019-04-05T11:39:17.752Z,25.80
2019-04-05T11:41:50.268Z,25.90
2019-04-05T11:44:19.907Z,25.80
2019-04-05T11:46:49.852Z,25.80
2019-04-05T11:49:19.623Z,26.00
2019-04-05T11:51:49.779Z,26.10
2019-04-05T11:54:19.529Z,26.00
2019-04-05T11:56:49.126Z,26.00
2019-04-05T11:59:19.586Z,25.90
2019-04-05T12:02:17.327Z,25.80
2019-04-05T12:04:46.797Z,25.80
2019-04-05T12:07:16.339Z,26.20
2019-04-05T12:09:46.026Z,26.30
2019-04-05T12:12:16.917Z,26.30
2019-04-05T12:14:46.672Z,26.20
2019-04-05T12:17:16.348Z,26.00
2019-04-05T12:19:46.408Z,26.10
2019-04-05T12:22:15.872Z,26.20
2019-04-05T12:24:47.637Z,26.20
2019-04-05T12:27:17.000Z,25.80
2019-04-05T12:29:46.476Z,25.80
2019-04-05T12:32:18.734Z,25.70
2019-04-05T12:34:49.516Z,25.70
2019-04-05T12:37:21.862Z,25.50
2019-04-05T12:39:50.755Z,25.50
2019-04-05T12:42:20.201Z,25.70
2019-04-05T12:44:49.648Z,25.90
2019-04-05T12:47:19.313Z,25.90
2019-04-05T12:49:48.776Z,25.80
2019-04-05T12:52:22.990Z,25.80
2019-04-05T12:54:53.927Z,26.10
2019-04-05T12:57:20.769Z,25.90
2019-04-05T12:59:51.374Z,25.80
2019-04-05T13:02:32.970Z,25.80
2019-04-05T13:04:52.331Z,25.70
2019-04-05T13:07:22.778Z,25.60
2019-04-05T13:09:55.064Z,25.70
2019-04-05T13:12:26.156Z,25.60
2019-04-05T13:15:10.944Z,25.50
2019-04-05T13:17:27.186Z,25.30
2019-04-05T13:19:58.401Z,25.20
2019-04-05T13:22:27.731Z,25.00
2019-04-05T13:24:57.224Z,24.90
2019-04-05T13:27:26.650Z,24.80
2019-04-05T13:29:56.104Z,24.70
2019-04-05T13:32:25.738Z,24.50
2019-04-05T13:34:55.705Z,24.40
2019-04-05T13:37:26.183Z,24.40
2019-04-05T13:39:57.682Z,24.30
2019-04-05T13:42:31.110Z,24.20
2019-04-05T13:44:59.671Z,23.90
2019-04-05T13:47:28.974Z,23.80
2019-04-05T13:49:58.530Z,23.50
2019-04-05T13:52:27.985Z,23.40
2019-04-05T13:54:57.468Z,23.30
2019-04-05T13:57:28.509Z,23.20
2019-04-05T13:59:58.469Z,23.30
2019-04-05T14:02:27.935Z,23.10
2019-04-05T14:04:57.231Z,23.10
2019-04-05T14:07:29.592Z,22.90
2019-04-05T14:09:59.119Z,22.90
2019-04-05T14:12:31.201Z,22.70
2019-04-05T14:15:00.028Z,22.60
2019-04-05T14:17:29.671Z,22.50
2019-04-05T14:19:59.338Z,22.60
2019-04-05T14:22:28.802Z,22.60
2019-04-05T14:24:58.301Z,22.60
2019-04-05T14:27:27.778Z,22.60
2019-04-05T14:29:57.410Z,22.60
2019-04-05T14:32:27.006Z,22.70
2019-04-05T14:34:56.546Z,22.70
2019-04-05T14:37:27.211Z,22.70
2019-04-05T14:39:56.715Z,22.70
2019-04-05T14:42:26.277Z,22.70
2019-04-05T14:44:55.988Z,22.60
2019-04-05T14:47:28.245Z,22.60
2019-04-05T14:49:58.286Z,22.70
2019-04-05T14:52:31.190Z,22.80
2019-04-05T14:55:00.667Z,22.70
2019-04-05T14:57:30.135Z,22.70
2019-04-05T14:59:59.534Z,22.80
2019-04-05T15:02:29.094Z,22.80
2019-04-05T15:04:58.751Z,22.80
2019-04-05T15:07:28.207Z,22.80
2019-04-05T15:09:57.624Z,22.80
2019-04-05T15:12:29.166Z,22.80
2019-04-05T15:14:58.217Z,22.80
2019-04-05T15:17:27.643Z,22.80
2019-04-05T15:19:57.048Z,22.70
2019-04-05T15:22:27.785Z,22.50
2019-04-05T15:24:57.258Z,22.50
2019-04-05T15:27:26.768Z,22.50
2019-04-05T15:29:56.397Z,22.40
2019-04-05T15:32:26.662Z,22.50
2019-04-05T15:34:56.532Z,22.50
2019-04-05T15:37:27.134Z,22.50
2019-04-05T15:39:56.511Z,22.50
2019-04-05T15:42:27.816Z,22.50
2019-04-05T15:44:57.287Z,22.40
2019-04-05T15:47:26.887Z,22.30
2019-04-05T15:49:56.481Z,22.30
2019-04-05T15:52:31.208Z,22.20
2019-04-05T15:54:58.051Z,22.10
2019-04-05T15:57:27.536Z,22.10
2019-04-05T15:59:57.314Z,22.00
2019-04-05T16:02:26.874Z,21.90
2019-04-05T16:04:56.581Z,21.90
2019-04-05T16:07:26.416Z,21.80
2019-04-05T16:09:58.964Z,21.80
2019-04-05T16:12:28.750Z,21.80
2019-04-05T16:14:58.549Z,21.70
2019-04-05T16:17:28.086Z,21.60
2019-04-05T16:19:57.666Z,21.60
2019-04-05T16:22:31.514Z,21.50
2019-04-05T16:24:58.823Z,21.20
2019-04-05T16:27:28.187Z,21.20
2019-04-05T16:29:57.567Z,21.10
2019-04-05T16:32:26.942Z,21.00
2019-04-05T16:34:56.398Z,21.00
2019-04-05T16:37:25.899Z,21.00
2019-04-05T16:39:55.482Z,20.90
2019-04-05T16:42:24.861Z,20.90
2019-04-05T16:44:54.319Z,20.80
2019-04-05T16:47:23.875Z,20.70
2019-04-05T16:49:53.254Z,20.50
2019-04-05T16:52:22.606Z,20.50
2019-04-05T16:54:51.930Z,20.50
2019-04-05T16:57:21.372Z,20.40
2019-04-05T16:59:50.754Z,20.40
2019-04-05T17:02:20.107Z,20.40
2019-04-05T17:04:49.450Z,20.20
2019-04-05T17:07:18.855Z,20.20
2019-04-05T17:09:48.330Z,20.20
2019-04-05T17:12:17.708Z,20.10
2019-04-05T17:14:47.223Z,20.00
2019-04-05T17:17:16.720Z,19.90
2019-04-05T17:19:46.157Z,19.80
2019-04-05T17:22:15.559Z,19.70
2019-04-05T17:24:44.893Z,19.60
2019-04-05T17:27:14.639Z,19.60
2019-04-05T17:29:44.127Z,19.50
2019-04-05T17:32:13.554Z,19.40
2019-04-05T17:34:43.017Z,19.30
2019-04-05T17:37:14.999Z,19.20
2019-04-05T17:39:44.601Z,19.10
2019-04-05T17:42:14.450Z,19.00
2019-04-05T17:44:43.948Z,18.90
2019-04-05T17:47:13.452Z,18.90
2019-04-05T17:49:42.983Z,18.80
2019-04-05T17:52:13.335Z,18.70
2019-04-05T17:54:42.730Z,18.70
2019-04-05T17:57:12.231Z,18.60
2019-04-05T17:59:41.765Z,18.60
2019-04-05T18:02:11.231Z,18.50
2019-04-05T18:04:40.558Z,18.40
2019-04-05T18:07:09.984Z,18.30
2019-04-05T18:09:39.511Z,18.30
2019-04-05T18:12:09.175Z,18.20
2019-04-05T18:14:38.486Z,18.10
2019-04-05T18:17:08.203Z,18.00
2019-04-05T18:19:37.686Z,17.90
2019-04-05T18:22:07.358Z,17.90
2019-04-05T18:24:36.911Z,17.80
2019-04-05T18:27:06.248Z,17.80
2019-04-05T18:29:35.684Z,17.70
2019-04-05T18:32:12.548Z,17.70
2019-04-05T18:34:42.007Z,17.60
2019-04-05T18:37:13.568Z,17.50
2019-04-05T18:40:40.641Z,17.40
2019-04-05T18:43:10.129Z,17.30
2019-04-05T18:45:39.556Z,17.10
2019-04-05T18:48:09.525Z,17.10
2019-04-05T18:50:38.989Z,17.00
2019-04-05T18:53:10.300Z,17.00
2019-04-05T18:55:40.496Z,16.90
2019-04-05T18:58:10.298Z,16.90
2019-04-05T19:00:39.893Z,16.80
2019-04-05T19:03:09.414Z,16.80
2019-04-05T19:05:39.021Z,16.70
2019-04-05T19:08:09.055Z,16.60
2019-04-05T19:10:38.881Z,16.60
2019-04-05T19:13:08.303Z,16.60
2019-04-05T19:15:37.774Z,16.50
2019-04-05T19:18:07.345Z,16.50
2019-04-05T19:20:37.550Z,16.50
2019-04-05T19:23:06.981Z,16.40
2019-04-05T19:25:37.206Z,16.40
2019-04-05T19:28:06.648Z,16.30
2019-04-05T19:48:34.835Z,16.00
2019-04-05T19:50:48.169Z,16.00
2019-04-05T19:53:17.641Z,15.90
2019-04-05T19:55:47.085Z,15.90
2019-04-05T19:58:16.660Z,15.80
2019-04-05T20:00:46.252Z,15.80
2019-04-05T20:03:18.854Z,15.70
2019-04-05T20:05:48.283Z,15.60
2019-04-05T20:08:17.837Z,15.50
2019-04-05T20:10:47.244Z,15.50
2019-04-05T20:13:16.753Z,15.50
2019-04-05T20:15:46.273Z,15.50
2019-04-05T20:18:15.779Z,15.50
2019-04-05T20:20:47.084Z,15.40
2019-04-05T20:23:16.426Z,15.40
2019-04-05T20:25:45.821Z,15.30
2019-04-05T20:28:15.384Z,15.20
2019-04-05T20:30:44.938Z,15.20
2019-04-05T20:33:14.325Z,15.10
2019-04-05T20:35:43.978Z,15.10
2019-04-05T20:38:13.644Z,15.00
2019-04-05T20:40:43.240Z,14.90
2019-04-05T20:43:12.788Z,14.80
2019-04-05T20:45:42.332Z,14.70
2019-04-05T20:48:11.861Z,14.70
2019-04-05T20:50:41.465Z,14.60
2019-04-05T20:53:10.842Z,14.50
2019-04-05T20:55:40.245Z,14.50
2019-04-05T20:58:09.953Z,14.50
2019-04-05T21:00:40.483Z,14.40
2019-04-05T21:03:09.898Z,14.40
2019-04-05T21:05:39.267Z,14.30
2019-04-05T21:08:08.733Z,14.30
2019-04-05T21:10:38.282Z,14.20
2019-04-05T21:13:07.902Z,14.20
2019-04-05T21:15:37.512Z,14.00
2019-04-05T21:18:07.340Z,13.90
2019-04-05T21:20:40.780Z,13.90
2019-04-05T21:23:10.208Z,13.80
2019-04-05T21:25:42.045Z,13.70
2019-04-05T21:28:11.533Z,13.70
2019-04-05T21:30:40.927Z,13.70
2019-04-05T21:33:10.538Z,13.60
2019-04-05T21:35:40.003Z,13.60
2019-04-05T21:38:09.475Z,13.50
2019-04-05T21:40:40.031Z,13.50
2019-04-05T21:43:09.464Z,13.40
2019-04-05T21:45:38.983Z,13.40
2019-04-05T21:48:08.312Z,13.40
2019-04-05T21:50:37.702Z,13.30
2019-04-05T21:53:10.635Z,13.30
2019-04-05T21:55:40.420Z,13.20
2019-04-05T21:58:10.480Z,13.20
2019-04-05T22:00:48.725Z,13.20
2019-04-05T22:03:18.108Z,13.10
2019-04-05T22:05:47.763Z,13.10
2019-04-05T22:08:18.343Z,13.10
2019-04-05T22:10:49.324Z,13.00
2019-04-05T22:13:19.080Z,13.10
2019-04-05T22:15:51.123Z,13.10
2019-04-05T22:18:20.655Z,13.00
2019-04-05T22:20:50.234Z,13.00
2019-04-05T22:23:19.682Z,12.90
2019-04-05T22:25:49.272Z,12.90
2019-04-05T22:28:18.882Z,12.90
2019-04-05T22:30:48.286Z,12.80
2019-04-05T22:33:17.863Z,12.80
2019-04-05T22:35:49.888Z,12.70
2019-04-05T22:38:19.270Z,12.60
2019-04-05T22:40:48.725Z,12.60
2019-04-05T22:43:18.134Z,12.60
2019-04-05T22:45:47.602Z,12.60
2019-04-05T22:48:17.132Z,12.60
2019-04-05T22:50:46.608Z,12.50
2019-04-05T22:53:16.392Z,12.40
2019-04-05T22:55:45.797Z,12.40
2019-04-05T22:58:15.421Z,12.30
2019-04-05T23:00:44.923Z,12.30
2019-04-05T23:03:14.422Z,12.30
2019-04-05T23:05:44.029Z,12.20
2019-04-05T23:08:13.440Z,12.20
2019-04-05T23:10:42.822Z,12.20
2019-04-05T23:13:12.333Z,12.20
2019-04-05T23:15:41.799Z,12.20
2019-04-05T23:18:11.269Z,12.10
2019-04-05T23:20:41.068Z,12.10
2019-04-05T23:23:10.512Z,12.10
2019-04-05T23:25:39.895Z,12.10
2019-04-05T23:28:09.649Z,12.00
2019-04-05T23:30:39.233Z,11.90
2019-04-05T23:33:08.654Z,11.90
2019-04-05T23:35:38.444Z,11.80
2019-04-05T23:38:08.005Z,11.80
2019-04-05T23:40:37.426Z,11.70
2019-04-05T23:43:07.078Z,11.70
2019-04-05T23:45:36.902Z,11.70
2019-04-05T23:48:06.424Z,11.60
2019-04-05T23:50:36.109Z,11.60
2019-04-05T23:53:06.036Z,11.50
2019-04-05T23:55:38.775Z,11.50
2019-04-05T23:58:08.257Z,11.50
